Time;durP1;ratioP1;P1;durP2;ratioP2;P2;SDS_P1;SDS_P2;PMS_P1;PMS_P2;Temp;Humidity;BMP_temperature;BMP_pressure;BME280_temperature;BME280_humidity;BME280_pressure;Samples;Min_cycle;Max_cycle;Signal;HPM_P1;HPM_P2
2022/09/12 00:02:04;;;;;;;3.57;3.27;;;15.70;99.90;;;;;;5095544;28;20514;-48
2022/09/12 00:04:30;;;;;;;3.37;2.70;;;15.70;99.90;;;;;;5095864;28;20445;-45
2022/09/12 00:06:57;;;;;;;3.33;2.80;;;15.70;99.90;;;;;;5094531;28;20466;-50
2022/09/12 00:09:25;;;;;;;3.13;2.83;;;15.60;99.90;;;;;;5095022;28;20477;-50
2022/09/12 00:11:52;;;;;;;4.00;2.37;;;15.60;99.90;;;;;;5097590;28;20457;-48
2022/09/12 00:14:19;;;;;;;3.90;2.83;;;15.60;99.90;;;;;;5099337;28;20486;-47
2022/09/12 00:16:46;;;;;;;3.73;2.80;;;15.50;99.90;;;;;;5099283;28;20434;-49
2022/09/12 00:19:13;;;;;;;3.60;2.80;;;15.40;99.90;;;;;;5099195;28;20514;-44
2022/09/12 00:21:40;;;;;;;3.33;2.57;;;15.40;99.90;;;;;;5099937;28;20442;-50
2022/09/12 00:24:08;;;;;;;3.70;2.80;;;15.40;99.90;;;;;;5099659;28;20476;-47
2022/09/12 00:26:36;;;;;;;2.77;2.33;;;15.40;99.90;;;;;;5099404;28;20445;-49
2022/09/12 00:29:03;;;;;;;7.37;3.00;;;15.40;99.90;;;;;;5099566;28;20462;-49
2022/09/12 00:31:30;;;;;;;4.23;2.80;;;15.30;99.90;;;;;;5099422;28;20515;-51
2022/09/12 00:34:00;;;;;;;4.60;3.13;;;15.30;99.90;;;;;;5099205;28;20481;-48
2022/09/12 00:36:28;;;;;;;3.53;2.77;;;15.30;99.90;;;;;;5099222;28;20506;-51
2022/09/12 00:38:55;;;;;;;4.27;2.93;;;15.30;99.90;;;;;;5099095;28;20479;-51
2022/09/12 00:41:24;;;;;;;4.67;2.73;;;15.20;99.90;;;;;;5099114;28;20438;-48
2022/09/12 00:43:55;;;;;;;5.13;3.37;;;15.20;99.90;;;;;;5098689;28;20464;-44
2022/09/12 00:46:35;;;;;;;3.50;2.40;;;15.20;99.90;;;;;;5098636;28;20435;-46
2022/09/12 00:49:05;;;;;;;3.40;2.83;;;15.10;99.90;;;;;;5098613;28;20452;-51
2022/09/12 00:51:35;;;;;;;4.57;3.03;;;15.10;99.90;;;;;;5098771;28;20425;-44
2022/09/12 00:54:08;;;;;;;3.33;2.70;;;15.10;99.90;;;;;;5098863;28;20489;-45
2022/09/12 00:56:35;;;;;;;3.23;2.23;;;15.10;99.90;;;;;;5099331;28;20417;-44
2022/09/12 00:59:08;;;;;;;3.43;2.53;;;15.10;99.90;;;;;;5098679;28;20442;-48
2022/09/12 01:01:36;;;;;;;2.63;2.43;;;15.00;99.90;;;;;;5098592;28;20429;-50
2022/09/12 01:04:03;;;;;;;4.57;2.50;;;15.00;99.90;;;;;;5098317;28;20451;-52
2022/09/12 01:06:35;;;;;;;4.03;3.60;;;15.00;99.90;;;;;;5097580;28;20527;-49
2022/09/12 01:09:03;;;;;;;3.30;2.60;;;14.90;99.90;;;;;;5097749;28;20422;-51
2022/09/12 01:11:31;;;;;;;4.00;2.73;;;14.90;99.90;;;;;;5098466;28;20465;-50
2022/09/12 01:13:59;;;;;;;4.53;2.47;;;14.80;99.90;;;;;;5098257;28;20466;-45
2022/09/12 01:16:28;;;;;;;9.10;2.50;;;14.80;99.90;;;;;;5098278;28;20494;-45
2022/09/12 01:19:05;;;;;;;4.60;2.43;;;14.80;99.90;;;;;;5097836;28;20439;-44
2022/09/12 01:21:40;;;;;;;2.47;2.27;;;14.80;99.90;;;;;;5098186;28;20513;-47
2022/09/12 01:24:40;;;;;;;4.30;2.77;;;14.80;99.90;;;;;;5098401;28;20422;-47
2022/09/12 01:27:25;;;;;;;4.93;2.37;;;14.70;99.90;;;;;;5097946;28;20465;-51
2022/09/12 01:30:24;;;;;;;2.30;2.10;;;14.70;99.90;;;;;;5098301;28;20518;-49
2022/09/12 01:33:03;;;;;;;3.30;2.80;;;14.60;99.90;;;;;;5072619;28;20887;-52
2022/09/12 01:35:36;;;;;;;6.50;2.90;;;14.60;99.90;;;;;;5098798;28;20639;-45
2022/09/12 01:38:10;;;;;;;5.50;2.57;;;14.60;99.90;;;;;;5097657;28;20429;-51
2022/09/12 01:40:45;;;;;;;3.30;2.30;;;14.50;99.90;;;;;;5097059;28;20477;-49
2022/09/12 01:43:20;;;;;;;4.93;2.57;;;14.50;99.90;;;;;;5096920;28;20426;-47
2022/09/12 01:45:56;;;;;;;3.30;2.87;;;14.50;99.90;;;;;;5096929;28;20497;-51
2022/09/12 01:48:28;;;;;;;3.40;2.90;;;14.50;99.90;;;;;;5096982;28;20419;-48
2022/09/12 01:51:07;;;;;;;4.80;3.23;;;14.50;99.90;;;;;;5097286;28;20510;-50
2022/09/12 01:53:41;;;;;;;3.63;2.57;;;14.40;99.90;;;;;;5096830;28;20535;-52
2022/09/12 01:56:13;;;;;;;3.43;1.90;;;14.40;99.90;;;;;;5097301;28;20462;-48
2022/09/12 01:58:45;;;;;;;3.07;2.50;;;14.40;99.90;;;;;;5097403;28;20430;-45
2022/09/12 02:01:15;;;;;;;3.97;2.10;;;14.40;99.90;;;;;;5097634;28;20469;-50
2022/09/12 02:03:47;;;;;;;6.37;2.60;;;14.40;99.90;;;;;;5097307;28;20439;-55
2022/09/12 02:06:19;;;;;;;10.20;2.87;;;14.40;99.90;;;;;;5097138;28;20466;-55
2022/09/12 02:08:51;;;;;;;4.33;2.50;;;14.40;99.90;;;;;;5096735;28;20439;-51
2022/09/12 02:11:19;;;;;;;5.30;2.80;;;14.40;99.90;;;;;;5096970;28;20442;-45
2022/09/12 02:13:53;;;;;;;4.30;2.60;;;14.40;99.90;;;;;;5096693;28;20442;-50
2022/09/12 02:16:23;;;;;;;3.83;2.53;;;14.40;99.90;;;;;;5097058;28;20469;-52
2022/09/12 02:18:56;;;;;;;5.50;3.33;;;14.30;99.90;;;;;;5097839;28;20446;-48
2022/09/12 02:21:25;;;;;;;2.90;2.50;;;14.30;99.90;;;;;;5096864;28;20488;-49
2022/09/12 02:23:56;;;;;;;5.87;2.93;;;14.30;99.90;;;;;;5096706;28;20448;-50
2022/09/12 02:26:28;;;;;;;4.90;3.10;;;14.30;99.90;;;;;;5096954;28;20452;-51
2022/09/12 02:28:56;;;;;;;4.10;2.80;;;14.30;99.90;;;;;;5096765;28;20422;-49
2022/09/12 02:31:28;;;;;;;6.17;3.50;;;14.30;99.90;;;;;;5096552;28;20474;-51
2022/09/12 02:34:09;;;;;;;3.30;3.00;;;14.30;99.90;;;;;;5095709;28;20422;-52
2022/09/12 02:36:46;;;;;;;4.60;3.30;;;14.20;99.90;;;;;;5096112;28;20470;-49
2022/09/12 02:39:18;;;;;;;2.83;2.57;;;14.20;99.90;;;;;;5096207;28;20426;-47
2022/09/12 02:41:45;;;;;;;3.70;2.80;;;14.20;99.90;;;;;;5096095;28;20454;-52
2022/09/12 02:44:12;;;;;;;3.40;2.83;;;14.20;99.90;;;;;;5096475;28;20503;-54
2022/09/12 02:46:43;;;;;;;3.30;2.80;;;14.20;99.90;;;;;;5096194;28;20465;-51
2022/09/12 02:49:11;;;;;;;5.40;3.40;;;14.20;99.90;;;;;;5095685;28;20429;-49
2022/09/12 02:51:38;;;;;;;3.73;2.40;;;14.20;99.90;;;;;;5096300;28;20617;-52
2022/09/12 02:54:06;;;;;;;3.17;2.53;;;14.30;99.90;;;;;;5095385;28;20470;-52
2022/09/12 02:56:35;;;;;;;6.13;3.10;;;14.30;99.90;;;;;;5096057;28;20500;-48
2022/09/12 02:59:05;;;;;;;4.60;2.97;;;14.30;99.90;;;;;;5095404;28;20461;-50
2022/09/12 03:01:46;;;;;;;4.07;3.13;;;14.30;99.90;;;;;;5095584;28;20474;-48
2022/09/12 03:04:37;;;;;;;3.17;2.37;;;14.40;99.90;;;;;;5096080;28;20434;-50
2022/09/12 03:07:13;;;;;;;4.37;3.80;;;14.40;99.90;;;;;;5095209;28;20447;-48
2022/09/12 03:09:46;;;;;;;3.20;2.90;;;14.40;99.90;;;;;;5095302;28;20423;-47
2022/09/12 03:12:25;;;;;;;4.13;3.17;;;14.40;99.90;;;;;;5095317;28;20442;-48
2022/09/12 03:15:06;;;;;;;5.77;3.83;;;14.40;99.90;;;;;;5095330;28;20470;-54
2022/09/12 03:17:49;;;;;;;4.37;3.43;;;14.40;99.90;;;;;;5095441;28;20490;-53
2022/09/12 03:20:25;;;;;;;3.17;2.87;;;14.50;99.90;;;;;;5095575;28;20437;-48
2022/09/12 03:22:55;;;;;;;5.73;3.47;;;14.50;99.90;;;;;;5095617;28;20480;-51
2022/09/12 03:25:28;;;;;;;8.43;3.23;;;14.40;99.90;;;;;;5095533;28;20435;-53
2022/09/12 03:27:59;;;;;;;5.03;3.10;;;14.40;99.90;;;;;;5095576;28;20458;-50
2022/09/12 03:30:26;;;;;;;5.10;2.63;;;14.40;99.90;;;;;;5095472;28;20433;-59
2022/09/12 03:32:54;;;;;;;4.40;3.20;;;14.40;99.90;;;;;;5095698;28;20463;-52
2022/09/12 03:35:24;;;;;;;3.73;2.73;;;14.30;99.90;;;;;;5095886;28;20978;-51
2022/09/12 03:37:52;;;;;;;4.27;2.90;;;14.30;99.90;;;;;;5095183;28;20446;-46
2022/09/12 03:40:20;;;;;;;6.90;3.13;;;14.30;99.90;;;;;;5095571;28;20439;-47
2022/09/12 03:42:46;;;;;;;2.90;2.70;;;14.20;99.90;;;;;;5095466;28;20463;-46
2022/09/12 03:45:15;;;;;;;3.43;3.13;;;14.20;99.90;;;;;;5094700;28;20469;-50
2022/09/12 03:47:44;;;;;;;5.73;2.90;;;14.20;99.90;;;;;;5094325;28;20463;-51
2022/09/12 03:50:11;;;;;;;4.40;3.40;;;14.20;99.90;;;;;;5094867;28;20435;-48
2022/09/12 03:52:39;;;;;;;5.30;2.97;;;14.10;99.90;;;;;;5094875;28;20473;-51
2022/09/12 03:55:07;;;;;;;4.13;3.23;;;14.10;99.90;;;;;;5094826;28;20477;-52
2022/09/12 03:57:34;;;;;;;6.00;3.90;;;14.10;99.90;;;;;;5095440;28;20455;-47
2022/09/12 04:00:01;;;;;;;6.13;3.50;;;14.10;99.90;;;;;;5082884;28;20450;-51
2022/09/12 04:02:28;;;;;;;4.00;3.40;;;14.10;99.90;;;;;;5082569;28;20559;-49
2022/09/12 04:04:56;;;;;;;4.60;3.27;;;14.10;99.90;;;;;;5094670;28;20433;-51
2022/09/12 04:07:25;;;;;;;5.67;3.33;;;14.10;99.90;;;;;;5094917;28;20453;-45
2022/09/12 04:09:53;;;;;;;3.90;3.50;;;14.10;99.90;;;;;;5095066;28;20442;-51
2022/09/12 04:12:20;;;;;;;5.40;3.47;;;14.10;99.90;;;;;;5095271;28;20506;-48
2022/09/12 04:14:47;;;;;;;6.20;3.73;;;14.10;99.90;;;;;;5094424;28;20482;-51
2022/09/12 04:17:14;;;;;;;5.10;2.90;;;14.00;99.90;;;;;;5094662;28;20449;-47
2022/09/12 04:19:41;;;;;;;10.83;3.10;;;14.00;99.90;;;;;;5094298;28;20445;-44
2022/09/12 04:22:08;;;;;;;4.97;4.07;;;14.00;99.90;;;;;;5094351;28;20465;-49
2022/09/12 04:24:35;;;;;;;4.77;3.63;;;14.00;99.90;;;;;;5094754;28;20430;-49
2022/09/12 04:27:03;;;;;;;4.30;3.10;;;14.00;99.90;;;;;;5094177;28;20442;-46
2022/09/12 04:29:30;;;;;;;4.20;3.10;;;14.00;99.90;;;;;;5094216;28;20529;-48
2022/09/12 04:31:57;;;;;;;4.07;3.43;;;14.00;99.90;;;;;;5094328;28;20442;-48
2022/09/12 04:34:23;;;;;;;3.83;3.40;;;14.00;99.90;;;;;;5094294;28;20473;-47
2022/09/12 04:36:50;;;;;;;4.40;3.13;;;13.90;99.90;;;;;;5094410;28;20480;-52
2022/09/12 04:39:17;;;;;;;6.87;3.50;;;13.90;99.90;;;;;;5095106;28;20465;-48
2022/09/12 04:41:44;;;;;;;3.10;2.77;;;13.90;99.90;;;;;;5095140;28;20462;-56
2022/09/12 04:44:14;;;;;;;3.70;3.27;;;13.90;99.90;;;;;;5094286;28;20462;-51
2022/09/12 04:46:44;;;;;;;4.70;3.60;;;13.90;99.90;;;;;;5094500;28;20474;-49
2022/09/12 04:49:12;;;;;;;4.97;3.47;;;13.90;99.90;;;;;;5094946;28;20484;-47
2022/09/12 04:51:40;;;;;;;3.60;3.27;;;14.00;99.90;;;;;;5094969;28;20441;-53
2022/09/12 04:54:10;;;;;;;4.37;3.30;;;14.00;99.90;;;;;;5094939;28;20482;-51
2022/09/12 04:56:39;;;;;;;6.30;4.13;;;13.90;99.90;;;;;;5094733;28;20782;-48
2022/09/12 04:59:06;;;;;;;3.20;2.80;;;13.90;99.90;;;;;;5098121;28;20455;-52
2022/09/12 05:01:35;;;;;;;5.90;3.87;;;13.90;99.90;;;;;;5098448;28;20449;-47
2022/09/12 05:04:03;;;;;;;5.50;4.87;;;13.90;99.90;;;;;;5098126;28;20442;-48
2022/09/12 05:06:32;;;;;;;5.40;3.87;;;13.90;99.90;;;;;;5098048;28;20437;-49
2022/09/12 05:09:00;;;;;;;5.40;3.77;;;13.90;99.90;;;;;;5098404;28;20408;-50
2022/09/12 05:11:29;;;;;;;3.80;2.93;;;13.90;99.90;;;;;;5097426;28;20458;-52
2022/09/12 05:13:56;;;;;;;5.30;3.20;;;13.90;99.90;;;;;;5098011;28;20441;-50
2022/09/12 05:16:26;;;;;;;5.50;3.80;;;13.90;99.90;;;;;;5098208;28;20509;-47
2022/09/12 05:18:55;;;;;;;4.80;3.77;;;13.90;99.90;;;;;;5098196;28;20460;-53
2022/09/12 05:21:23;;;;;;;6.83;4.00;;;14.00;99.90;;;;;;5098313;28;20451;-43
2022/09/12 05:23:51;;;;;;;6.33;4.37;;;14.00;99.90;;;;;;5098199;28;20435;-46
2022/09/12 05:26:19;;;;;;;4.90;3.63;;;14.00;99.90;;;;;;5095909;28;20793;-49
2022/09/12 05:28:47;;;;;;;4.80;4.30;;;13.90;99.90;;;;;;5097890;28;20901;-49
2022/09/12 05:31:16;;;;;;;9.47;3.60;;;14.00;99.90;;;;;;5097800;28;20454;-46
2022/09/12 05:33:45;;;;;;;5.83;3.83;;;14.00;99.90;;;;;;5097762;28;20450;-44
2022/09/12 05:36:14;;;;;;;5.30;3.70;;;14.00;99.90;;;;;;5097680;28;20497;-50
2022/09/12 05:38:41;;;;;;;5.13;4.33;;;14.10;99.90;;;;;;5097754;28;20431;-48
2022/09/12 05:41:11;;;;;;;5.87;4.37;;;14.10;99.90;;;;;;5097638;28;20454;-50
2022/09/12 05:43:40;;;;;;;5.37;4.30;;;14.10;99.90;;;;;;5097400;28;20442;-43
2022/09/12 05:46:09;;;;;;;5.83;3.87;;;14.20;99.90;;;;;;5097170;28;20501;-43
2022/09/12 05:48:36;;;;;;;5.10;3.80;;;14.20;99.90;;;;;;5097388;28;20442;-52
2022/09/12 05:51:06;;;;;;;7.73;4.80;;;14.20;99.90;;;;;;5097260;28;20463;-47
2022/09/12 05:53:36;;;;;;;6.83;4.43;;;14.20;99.90;;;;;;5097823;28;20656;-51
2022/09/12 05:56:05;;;;;;;7.33;4.40;;;14.30;99.90;;;;;;5096932;28;20466;-47
2022/09/12 05:58:33;;;;;;;5.43;4.00;;;14.30;99.90;;;;;;5097464;28;20438;-50
2022/09/12 06:01:03;;;;;;;6.17;4.60;;;14.40;99.90;;;;;;5097073;28;20450;-50
2022/09/12 06:03:30;;;;;;;5.13;3.80;;;14.40;99.90;;;;;;5097007;28;20458;-48
2022/09/12 06:05:57;;;;;;;7.90;5.50;;;14.50;99.90;;;;;;5097146;28;20511;-50
2022/09/12 06:08:24;;;;;;;10.80;5.63;;;14.50;99.90;;;;;;5096241;28;20411;-53
2022/09/12 06:10:58;;;;;;;6.43;4.77;;;14.50;99.90;;;;;;5096284;28;20446;-49
2022/09/12 06:13:24;;;;;;;6.57;4.37;;;14.60;99.90;;;;;;5096947;28;20423;-50
2022/09/12 06:15:51;;;;;;;5.30;4.43;;;14.60;99.90;;;;;;5096685;28;20486;-47
2022/09/12 06:18:19;;;;;;;5.40;4.20;;;14.70;99.90;;;;;;5096475;28;20423;-51
2022/09/12 06:20:46;;;;;;;6.10;4.20;;;14.70;99.90;;;;;;5096390;28;20474;-45
2022/09/12 06:23:13;;;;;;;13.47;5.80;;;14.80;99.90;;;;;;5095987;28;20443;-46
2022/09/12 06:25:46;;;;;;;6.47;5.10;;;14.90;99.90;;;;;;5096079;28;20506;-47
2022/09/12 06:28:20;;;;;;;6.93;4.60;;;14.90;99.90;;;;;;5096282;28;20443;-50
2022/09/12 06:30:47;;;;;;;8.90;4.43;;;15.00;99.90;;;;;;5096792;28;20490;-49
2022/09/12 06:33:14;;;;;;;6.53;4.83;;;15.10;99.90;;;;;;5096341;28;20469;-44
2022/09/12 06:35:41;;;;;;;8.80;4.97;;;15.10;99.90;;;;;;5095672;28;20478;-54
2022/09/12 06:38:08;;;;;;;8.07;4.60;;;15.20;99.90;;;;;;5095643;28;20485;-45
2022/09/12 06:40:42;;;;;;;5.57;4.00;;;15.20;99.90;;;;;;5095807;28;20422;-52
2022/09/12 06:43:09;;;;;;;7.37;5.20;;;15.30;99.90;;;;;;5095743;28;20439;-53
2022/09/12 06:45:37;;;;;;;5.03;3.87;;;15.40;99.90;;;;;;5095620;28;20434;-51
2022/09/12 06:48:04;;;;;;;6.90;4.47;;;15.40;99.90;;;;;;5093712;28;20443;-42
2022/09/12 06:50:31;;;;;;;8.80;5.07;;;15.50;99.90;;;;;;5093928;28;20430;-46
2022/09/12 06:52:58;;;;;;;6.47;4.87;;;15.60;99.90;;;;;;5095412;28;20478;-51
2022/09/12 06:55:25;;;;;;;8.13;4.93;;;15.70;99.90;;;;;;5095215;28;20536;-48
2022/09/12 06:57:52;;;;;;;5.97;4.20;;;15.70;99.90;;;;;;5094195;28;20451;-51
2022/09/12 07:00:18;;;;;;;8.40;5.80;;;15.80;99.90;;;;;;5095181;28;20439;-50
2022/09/12 07:02:48;;;;;;;9.83;6.20;;;15.90;99.90;;;;;;5095208;28;20445;-45
2022/09/12 07:05:17;;;;;;;9.17;5.73;;;15.90;99.90;;;;;;5095277;28;20480;-50
2022/09/12 07:07:44;;;;;;;6.67;5.17;;;16.00;99.90;;;;;;5094506;28;20457;-47
2022/09/12 07:10:11;;;;;;;9.63;5.90;;;16.10;99.90;;;;;;5095471;28;20891;-46
2022/09/12 07:12:38;;;;;;;7.00;5.70;;;16.10;99.90;;;;;;5094872;28;20438;-54
2022/09/12 07:15:05;;;;;;;7.33;5.40;;;16.20;99.90;;;;;;5094918;28;20472;-50
2022/09/12 07:17:32;;;;;;;9.13;5.23;;;16.20;99.90;;;;;;5094355;28;20446;-51
2022/09/12 07:20:00;;;;;;;9.57;6.57;;;16.30;99.90;;;;;;5095456;28;20922;-51
2022/09/12 07:22:27;;;;;;;11.20;7.20;;;16.40;99.90;;;;;;5095233;28;20511;-51
2022/09/12 07:24:56;;;;;;;10.77;6.70;;;16.40;99.90;;;;;;5095137;28;20453;-45
2022/09/12 07:27:23;;;;;;;11.47;8.33;;;16.50;99.90;;;;;;5095729;28;20445;-48
2022/09/12 07:29:50;;;;;;;9.17;6.27;;;16.60;99.90;;;;;;5095479;28;20449;-44
2022/09/12 07:32:16;;;;;;;15.43;7.47;;;16.60;99.90;;;;;;5095405;28;20469;-45
2022/09/12 07:34:45;;;;;;;9.13;6.67;;;16.70;99.90;;;;;;5095464;28;20459;-47
2022/09/12 07:37:20;;;;;;;8.20;6.20;;;16.80;99.90;;;;;;5094830;28;20490;-49
2022/09/12 07:39:46;;;;;;;8.70;7.17;;;16.80;99.90;;;;;;5095045;28;20456;-45
2022/09/12 07:42:16;;;;;;;13.63;6.63;;;16.80;99.90;;;;;;5094854;28;20466;-51
2022/09/12 07:44:44;;;;;;;10.27;6.00;;;16.80;99.90;;;;;;5095241;28;20460;-43
2022/09/12 07:47:11;;;;;;;6.90;5.20;;;17.00;99.90;;;;;;5095251;28;20438;-57
2022/09/12 07:49:39;;;;;;;8.00;4.93;;;17.00;99.90;;;;;;5095133;28;20414;-48
2022/09/12 07:52:06;;;;;;;8.43;4.80;;;17.10;99.90;;;;;;5095289;28;20530;-47
2022/09/12 07:54:34;;;;;;;6.17;3.37;;;17.20;99.90;;;;;;5094746;28;20466;-55
2022/09/12 07:57:03;;;;;;;7.40;4.03;;;17.30;99.90;;;;;;5094645;28;20505;-50
2022/09/12 07:59:30;;;;;;;4.10;3.10;;;17.40;99.90;;;;;;5094319;28;20470;-43
2022/09/12 08:01:57;;;;;;;5.00;3.10;;;17.40;99.90;;;;;;5094331;28;20481;-49
2022/09/12 08:04:23;;;;;;;3.07;2.63;;;17.50;99.90;;;;;;5094345;28;20453;-51
2022/09/12 08:06:52;;;;;;;3.60;2.87;;;17.60;99.90;;;;;;5094601;28;20485;-51
2022/09/12 08:09:19;;;;;;;4.23;2.90;;;17.80;99.90;;;;;;5094105;28;20478;-44
2022/09/12 08:11:47;;;;;;;5.20;3.03;;;18.00;99.90;;;;;;5094242;28;20450;-50
2022/09/12 08:14:16;;;;;;;3.30;2.50;;;18.40;99.90;;;;;;5094425;28;20446;-50
2022/09/12 08:16:43;;;;;;;4.00;2.80;;;19.20;99.90;;;;;;5094502;28;20478;-50
2022/09/12 08:19:11;;;;;;;3.93;2.40;;;20.10;99.90;;;;;;5095061;28;20582;-52
2022/09/12 08:21:38;;;;;;;4.40;2.27;;;20.90;99.90;;;;;;5095293;28;20523;-53
2022/09/12 08:24:06;;;;;;;2.13;1.97;;;22.60;99.90;;;;;;5094577;28;20426;-52
2022/09/12 08:26:34;;;;;;;3.50;2.70;;;23.80;99.90;;;;;;5094516;28;20433;-46
2022/09/12 08:29:03;;;;;;;2.77;2.30;;;24.00;99.90;;;;;;5095473;28;20429;-48
2022/09/12 08:31:35;;;;;;;2.67;2.47;;;24.90;99.90;;;;;;5094979;28;20460;-47
2022/09/12 08:34:02;;;;;;;3.40;2.43;;;26.20;99.90;;;;;;5098542;28;20456;-54
2022/09/12 08:36:29;;;;;;;2.30;2.10;;;27.40;99.90;;;;;;5098706;28;20906;-51
2022/09/12 08:38:58;;;;;;;3.97;1.90;;;28.40;95.50;;;;;;5098931;28;20470;-39
2022/09/12 08:41:30;;;;;;;3.37;2.20;;;29.40;91.00;;;;;;5099239;28;20458;-39
2022/09/12 08:44:33;;;;;;;4.93;2.53;;;30.20;85.10;;;;;;5098474;28;20486;-49
2022/09/12 08:47:17;;;;;;;2.90;2.60;;;30.80;78.10;;;;;;5081388;28;20990;-43
2022/09/12 08:49:51;;;;;;;3.90;2.50;;;30.70;76.30;;;;;;5098503;28;20468;-47
2022/09/12 08:52:21;;;;;;;2.30;2.10;;;30.80;73.00;;;;;;5098800;28;20426;-48
2022/09/12 08:54:48;;;;;;;3.93;2.17;;;30.40;73.10;;;;;;5098320;28;20462;-53
2022/09/12 08:57:16;;;;;;;2.83;2.53;;;30.50;72.40;;;;;;5098641;28;20466;-42
2022/09/12 08:59:44;;;;;;;2.43;2.20;;;30.90;71.40;;;;;;5098138;28;20473;-47
2022/09/12 09:02:44;;;;;;;3.00;2.70;;;31.10;69.40;;;;;;5097947;28;20426;-53
2022/09/12 09:05:22;;;;;;;3.53;2.13;;;30.50;68.80;;;;;;5083121;28;20466;-50
2022/09/12 09:08:19;;;;;;;4.20;2.10;;;29.90;69.40;;;;;;5098379;28;20464;-43
2022/09/12 09:10:51;;;;;;;2.50;1.70;;;29.30;72.00;;;;;;5098329;28;20446;-46
2022/09/12 09:16:22;;;;;;;2.30;1.73;;;29.10;68.90;;;;;;5098326;28;20492;-49
2022/09/12 09:18:52;;;;;;;3.20;2.00;;;27.70;72.80;;;;;;5098116;28;20449;-46
2022/09/12 09:21:23;;;;;;;1.87;1.70;;;26.60;76.10;;;;;;5098142;28;20435;-42
2022/09/12 09:23:58;;;;;;;2.80;2.13;;;25.60;80.90;;;;;;5097788;28;20443;-48
2022/09/12 09:26:39;;;;;;;3.00;2.60;;;24.60;85.60;;;;;;5098165;28;20491;-51
2022/09/12 09:29:11;;;;;;;4.40;3.10;;;23.90;91.80;;;;;;5097752;28;20468;-47
2022/09/12 09:31:39;;;;;;;3.77;2.07;;;23.50;97.90;;;;;;5097739;28;20450;-49
2022/09/12 09:34:18;;;;;;;2.60;2.23;;;23.40;99.90;;;;;;5097543;28;20491;-44
2022/09/12 09:36:50;;;;;;;3.40;2.30;;;23.80;99.90;;;;;;5098057;28;20466;-47
2022/09/12 09:39:31;;;;;;;2.33;1.90;;;23.80;98.90;;;;;;5097938;28;20538;-43
2022/09/12 09:42:11;;;;;;;2.37;1.67;;;23.60;98.90;;;;;;5097255;28;20450;-48
2022/09/12 09:44:38;;;;;;;2.80;1.80;;;23.50;98.70;;;;;;5095978;28;20525;-48
2022/09/12 09:47:05;;;;;;;8.40;2.20;;;23.40;99.30;;;;;;5097079;28;20454;-45
2022/09/12 09:49:34;;;;;;;3.83;3.53;;;24.10;98.50;;;;;;5097116;28;20514;-49
2022/09/12 09:52:02;;;;;;;3.67;2.00;;;25.20;96.40;;;;;;5098178;28;20498;-47
2022/09/12 09:54:35;;;;;;;1.83;1.30;;;26.40;91.80;;;;;;5097334;28;20430;-38
2022/09/12 09:57:03;;;;;;;2.30;1.57;;;27.40;87.90;;;;;;5097441;28;20474;-49
2022/09/12 09:59:32;;;;;;;4.00;1.80;;;28.10;79.80;;;;;;5097546;28;20438;-45
2022/09/12 10:02:02;;;;;;;2.40;2.10;;;28.80;78.10;;;;;;5097224;28;20477;-49
2022/09/12 10:04:32;;;;;;;2.30;1.63;;;29.40;79.00;;;;;;5097604;28;20505;-43
2022/09/12 10:07:02;;;;;;;2.17;1.77;;;29.90;71.00;;;;;;5096917;28;20447;-47
2022/09/12 10:09:31;;;;;;;2.00;1.50;;;30.40;66.40;;;;;;5097095;28;20475;-46
2022/09/12 10:12:00;;;;;;;2.67;1.30;;;30.90;65.30;;;;;;5097296;28;20494;-41
2022/09/12 10:14:40;;;;;;;2.13;1.93;;;31.00;61.40;;;;;;5097052;28;20446;-47
2022/09/12 10:17:27;;;;;;;1.37;1.20;;;31.20;62.40;;;;;;5096755;28;20474;-46
2022/09/12 10:19:57;;;;;;;2.00;1.57;;;31.30;63.20;;;;;;5096990;28;20466;-51
2022/09/12 10:22:29;;;;;;;2.10;1.30;;;31.40;59.60;;;;;;5097196;28;20419;-48
2022/09/12 10:24:59;;;;;;;1.93;1.60;;;31.30;59.00;;;;;;5096564;28;20446;-47
2022/09/12 10:27:30;;;;;;;2.40;1.40;;;31.00;58.30;;;;;;5096743;28;20419;-48
2022/09/12 10:30:03;;;;;;;2.33;1.80;;;30.90;59.00;;;;;;5096779;28;20831;-43
2022/09/12 10:32:35;;;;;;;7.13;2.10;;;30.70;59.00;;;;;;5096866;28;20414;-44
2022/09/12 10:35:04;;;;;;;1.53;1.30;;;29.90;59.70;;;;;;5096531;28;20466;-44
2022/09/12 10:37:35;;;;;;;2.10;1.60;;;29.10;61.40;;;;;;5096652;28;20469;-43
2022/09/12 10:40:05;;;;;;;2.60;1.40;;;28.60;62.80;;;;;;5096711;28;20462;-42
2022/09/12 10:42:47;;;;;;;3.30;2.03;;;28.50;66.00;;;;;;5095691;28;20430;-55
2022/09/12 10:45:23;;;;;;;2.17;1.40;;;28.50;63.00;;;;;;5096105;28;20431;-45
2022/09/12 10:47:50;;;;;;;1.80;1.63;;;28.50;64.50;;;;;;5096056;28;20488;-43
2022/09/12 10:50:22;;;;;;;1.33;1.20;;;28.50;63.70;;;;;;5096407;28;20438;-45
2022/09/12 10:52:51;;;;;;;2.00;1.47;;;28.50;65.90;;;;;;5096528;28;20458;-45
2022/09/12 10:55:21;;;;;;;1.93;1.60;;;28.30;65.10;;;;;;5096193;28;20949;-47
2022/09/12 10:58:09;;;;;;;9.60;1.97;;;28.10;64.90;;;;;;5096688;28;20474;-40
2022/09/12 11:00:41;;;;;;;1.90;1.30;;;27.70;67.80;;;;;;5094035;28;20523;-53
2022/09/12 11:03:17;;;;;;;2.57;1.60;;;27.60;65.50;;;;;;5096323;28;20475;-47
2022/09/12 11:05:53;;;;;;;2.10;1.43;;;27.40;65.60;;;;;;5096522;28;20426;-46
2022/09/12 11:08:53;;;;;;;5.90;2.00;;;27.20;68.40;;;;;;5096333;28;20482;-42
2022/09/12 11:11:38;;;;;;;1.53;1.43;;;26.90;67.50;;;;;;5096002;28;20446;-48
2022/09/12 11:14:18;;;;;;;2.50;1.40;;;26.60;67.50;;;;;;5096640;28;20451;-47
2022/09/12 11:16:53;;;;;;;3.20;2.20;;;26.30;68.50;;;;;;5095969;28;20482;-46
2022/09/12 11:19:53;;;;;;;2.00;1.80;;;25.90;68.50;;;;;;5096245;28;20458;-51
2022/09/12 11:22:33;;;;;;;3.20;1.50;;;25.40;69.30;;;;;;5044227;28;20445;-48
2022/09/12 11:25:29;;;;;;;5.37;1.70;;;25.10;70.60;;;;;;5096042;28;20907;-44
2022/09/12 11:28:27;;;;;;;2.90;1.43;;;25.00;75.90;;;;;;5094030;28;20483;-48
2022/09/12 11:31:21;;;;;;;1.60;1.40;;;24.90;72.80;;;;;;5083890;28;20482;-45
2022/09/12 11:33:49;;;;;;;2.07;1.50;;;24.70;73.90;;;;;;5095811;28;20410;-48
2022/09/12 11:36:29;;;;;;;2.60;1.80;;;24.60;75.10;;;;;;5095018;28;20469;-51
2022/09/12 11:39:12;;;;;;;2.07;1.63;;;24.50;76.60;;;;;;5095584;28;20429;-47
2022/09/12 11:41:43;;;;;;;2.50;1.40;;;24.10;76.10;;;;;;5095160;28;20462;-48
2022/09/12 11:44:19;;;;;;;1.50;1.30;;;23.80;78.20;;;;;;5095233;28;20439;-52
2022/09/12 11:46:46;;;;;;;2.07;1.60;;;23.40;80.70;;;;;;5095082;28;20469;-51
2022/09/12 11:49:31;;;;;;;1.57;1.30;;;23.20;82.30;;;;;;5095402;28;20415;-44
2022/09/12 11:52:01;;;;;;;3.00;1.47;;;23.00;81.90;;;;;;5094112;28;20450;-50
2022/09/12 11:54:33;;;;;;;1.97;1.60;;;22.70;83.40;;;;;;5095274;28;20422;-49
2022/09/12 11:57:11;;;;;;;1.90;1.30;;;22.60;83.60;;;;;;5095103;28;20462;-46
2022/09/12 11:59:46;;;;;;;2.00;1.60;;;22.40;87.20;;;;;;5095494;28;20434;-38
2022/09/12 12:02:21;;;;;;;2.13;1.40;;;22.30;89.60;;;;;;5095252;28;20729;-45
2022/09/12 12:05:01;;;;;;;1.93;1.77;;;22.20;91.40;;;;;;5095188;28;20494;-41
2022/09/12 12:07:31;;;;;;;1.53;1.27;;;22.20;92.50;;;;;;5097033;28;20421;-50
2022/09/12 12:09:58;;;;;;;1.90;1.40;;;22.10;93.00;;;;;;5098695;28;20454;-46
2022/09/12 12:12:28;;;;;;;1.40;1.30;;;22.00;92.90;;;;;;5099246;28;20423;-43
2022/09/12 12:14:57;;;;;;;3.67;1.90;;;22.10;93.90;;;;;;5098787;28;20470;-51
2022/09/12 12:17:25;;;;;;;2.00;1.80;;;22.20;94.80;;;;;;5099184;28;20484;-43
2022/09/12 12:20:04;;;;;;;1.90;1.60;;;22.40;93.60;;;;;;5098312;28;20521;-50
2022/09/12 12:22:31;;;;;;;1.40;1.30;;;22.60;93.80;;;;;;5098779;28;20438;-48
2022/09/12 12:25:24;;;;;;;1.90;1.67;;;22.80;93.00;;;;;;5099016;28;20442;-46
2022/09/12 12:27:57;;;;;;;1.93;1.73;;;23.00;93.80;;;;;;5099023;28;20435;-53
2022/09/12 12:30:58;;;;;;;2.70;1.90;;;23.10;92.20;;;;;;5098360;28;20421;-51
2022/09/12 12:33:55;;;;;;;4.03;1.97;;;23.20;92.80;;;;;;5098947;28;20456;-49
2022/09/12 12:36:40;;;;;;;5.30;1.77;;;23.20;92.30;;;;;;5098723;28;20434;-52
2022/09/12 12:39:43;;;;;;;1.40;1.20;;;23.10;92.10;;;;;;5098437;28;20438;-48
2022/09/12 12:42:10;;;;;;;2.60;1.60;;;23.10;92.00;;;;;;5098141;28;20527;-47
2022/09/12 12:44:51;;;;;;;1.87;1.50;;;23.20;93.00;;;;;;5098683;28;20403;-44
2022/09/12 12:47:20;;;;;;;1.43;1.23;;;23.20;92.00;;;;;;5098264;28;20521;-48
2022/09/12 12:49:53;;;;;;;2.70;2.23;;;23.20;92.40;;;;;;5098330;28;20509;-42
2022/09/12 12:52:20;;;;;;;3.90;2.20;;;23.20;91.50;;;;;;5097947;28;20438;-51
2022/09/12 12:54:54;;;;;;;2.30;1.73;;;23.10;90.70;;;;;;5098421;28;20438;-45
2022/09/12 12:57:39;;;;;;;2.70;1.50;;;23.10;90.50;;;;;;5098168;28;20530;-46
2022/09/12 13:00:25;;;;;;;1.33;1.23;;;23.00;90.30;;;;;;5098144;28;20533;-49
2022/09/12 13:02:56;;;;;;;1.50;1.13;;;22.90;89.00;;;;;;5097979;28;20426;-47
2022/09/12 13:05:27;;;;;;;4.27;1.10;;;22.90;88.70;;;;;;5097864;28;20473;-47
2022/09/12 13:07:56;;;;;;;3.03;1.27;;;23.00;87.10;;;;;;5098827;28;20458;-44
2022/09/12 13:10:27;;;;;;;1.10;1.00;;;23.00;87.70;;;;;;5098522;28;20502;-48
2022/09/12 13:12:55;;;;;;;5.03;1.60;;;23.10;89.40;;;;;;5098968;28;20411;-45